Hustontown, Pennsylvania
Current Conditions -  °F | °C
As of 6:53 PM on Wednesday 28 Jan 2015 (Local Time) from KAOO Reporting Station
Clear Clear  
Wind Chill: -14°   Ceiling: Unl
Heat Index: -8°   Visibility: 10mi
Dew Point: -15°   Wind: 7mph
Humidity: 59%   Direction: 250°WSW
Pressure: 30.26"   Gusts: NA
Location:  40.05°N, 78.03°W
Report Text: KAOO 282353Z AUTO 25006KT 10SM CLR M08/M15 A3026 RMK AO2 SLP278 6//// T10831150 53016
Loading
Personal Weather Stations






























Interactive Weather Map New forecast layout! Learn more

10-Day Weather Forecast

Advertisements
Track Severe Weather on mobile